Time;durP1;ratioP1;P1;durP2;ratioP2;P2;SDS_P1;SDS_P2;PMS_P1;PMS_P2;Temp;Humidity;BMP_temperature;BMP_pressure;BME280_temperature;BME280_humidity;BME280_pressure;Samples;Min_cycle;Max_cycle;Signal;HPM_P1;HPM_P2
2023/11/22 00:00:35;;;;;;;2.40;2.20;;;;;;;;;;6282904;22;20180;-79
2023/11/22 00:03:03;;;;;;;2.75;2.55;;;;;;;;;;6284589;22;20506;-79
2023/11/22 00:05:30;;;;;;;6.47;2.47;;;;;;;;;;6283588;22;20702;-78
2023/11/22 00:07:58;;;;;;;2.80;2.45;;;;;;;;;;6283691;22;20275;-79
2023/11/22 00:10:25;;;;;;;3.03;2.50;;;;;;;;;;6283747;22;20267;-79
2023/11/22 00:12:52;;;;;;;2.60;2.28;;;;;;;;;;6284903;22;20206;-79
2023/11/22 00:15:22;;;;;;;2.63;2.42;;;;;;;;;;6283648;22;20208;-79
2023/11/22 00:17:49;;;;;;;4.82;2.50;;;;;;;;;;6283757;22;20272;-79
2023/11/22 00:20:17;;;;;;;3.10;2.10;;;;;;;;;;6284125;22;20261;-79
2023/11/22 00:22:45;;;;;;;2.95;2.65;;;;;;;;;;6283527;22;20203;-79
2023/11/22 00:25:13;;;;;;;4.20;3.40;;;;;;;;;;6283763;22;20187;-79
2023/11/22 00:27:41;;;;;;;3.67;3.00;;;;;;;;;;6284200;22;20192;-79
2023/11/22 00:30:10;;;;;;;3.03;2.63;;;;;;;;;;6284331;22;20687;-79
2023/11/22 00:32:40;;;;;;;3.25;2.88;;;;;;;;;;6284554;22;20173;-80
2023/11/22 00:35:08;;;;;;;3.08;2.78;;;;;;;;;;6285372;22;20183;-80
2023/11/22 00:37:36;;;;;;;3.25;2.88;;;;;;;;;;6284605;22;20251;-79
2023/11/22 00:40:10;;;;;;;3.47;2.90;;;;;;;;;;6283196;22;20184;-80
2023/11/22 00:42:39;;;;;;;3.10;2.63;;;;;;;;;;6284979;22;20181;-79
2023/11/22 00:45:09;;;;;;;3.25;2.95;;;;;;;;;;6284762;22;20226;-79
2023/11/22 00:47:38;;;;;;;3.53;3.05;;;;;;;;;;6282878;22;20672;-79
2023/11/22 00:50:07;;;;;;;4.13;3.08;;;;;;;;;;6282315;22;20176;-79
2023/11/22 00:52:35;;;;;;;2.92;2.63;;;;;;;;;;6281175;22;20172;-79
2023/11/22 00:55:03;;;;;;;2.70;2.50;;;;;;;;;;6282477;22;20255;-78
2023/11/22 00:57:30;;;;;;;2.65;2.40;;;;;;;;;;6282125;22;20204;-78
2023/11/22 00:59:58;;;;;;;4.25;3.00;;;;;;;;;;6280971;22;20172;-79
2023/11/22 01:02:25;;;;;;;3.65;3.05;;;;;;;;;;6282357;22;20263;-78
2023/11/22 01:04:54;;;;;;;2.75;2.55;;;;;;;;;;6282463;22;20207;-78
2023/11/22 01:07:21;;;;;;;2.97;2.78;;;;;;;;;;6282840;22;20733;-79
2023/11/22 01:09:49;;;;;;;3.88;3.30;;;;;;;;;;6280892;22;20286;-77
2023/11/22 01:12:16;;;;;;;2.90;2.60;;;;;;;;;;6281493;22;20230;-78
2023/11/22 01:14:44;;;;;;;3.28;2.70;;;;;;;;;;6281182;22;20255;-79
2023/11/22 01:17:11;;;;;;;3.90;3.50;;;;;;;;;;6281721;22;20727;-77
2023/11/22 01:19:38;;;;;;;4.65;3.45;;;;;;;;;;6281012;22;20251;-77
2023/11/22 01:22:07;;;;;;;3.95;3.42;;;;;;;;;;6281184;22;20275;-78
2023/11/22 01:24:37;;;;;;;2.55;2.35;;;;;;;;;;6280775;22;20672;-79
2023/11/22 01:27:05;;;;;;;4.32;3.60;;;;;;;;;;6281787;22;20251;-78
2023/11/22 01:29:34;;;;;;;4.07;3.50;;;;;;;;;;6280702;22;20183;-78
2023/11/22 01:32:02;;;;;;;2.95;2.75;;;;;;;;;;6281324;22;20176;-78
2023/11/22 01:34:30;;;;;;;3.38;2.95;;;;;;;;;;6281888;22;20697;-78
2023/11/22 01:36:57;;;;;;;4.80;3.20;;;;;;;;;;6281494;22;20180;-78
2023/11/22 01:39:27;;;;;;;2.90;2.70;;;;;;;;;;6281558;22;20255;-78
2023/11/22 01:41:56;;;;;;;4.43;3.00;;;;;;;;;;6282499;22;20200;-77
2023/11/22 01:44:23;;;;;;;4.22;3.83;;;;;;;;;;6282394;22;20177;-78
2023/11/22 01:46:51;;;;;;;2.60;2.40;;;;;;;;;;6281665;22;20176;-77
2023/11/22 01:49:19;;;;;;;3.40;3.08;;;;;;;;;;6281423;22;20172;-78
2023/11/22 01:51:46;;;;;;;4.85;3.47;;;;;;;;;;6281518;22;20251;-77
2023/11/22 01:54:14;;;;;;;3.08;2.75;;;;;;;;;;6281187;22;20544;-78
2023/11/22 01:56:43;;;;;;;3.70;3.05;;;;;;;;;;6279864;22;20183;-78
2023/11/22 01:59:10;;;;;;;2.65;2.30;;;;;;;;;;6279823;22;20275;-78
2023/11/22 02:01:38;;;;;;;4.07;3.33;;;;;;;;;;6279090;22;20199;-78
2023/11/22 02:04:06;;;;;;;3.33;3.03;;;;;;;;;;6280883;22;20290;-79
2023/11/22 02:06:33;;;;;;;3.47;3.17;;;;;;;;;;6280534;22;20173;-78
2023/11/22 02:09:01;;;;;;;4.65;3.10;;;;;;;;;;6280989;22;20578;-78
2023/11/22 02:11:29;;;;;;;3.35;3.00;;;;;;;;;;6280126;22;20188;-78
2023/11/22 02:13:57;;;;;;;3.90;3.22;;;;;;;;;;6281121;22;20172;-78
2023/11/22 02:16:25;;;;;;;2.92;2.65;;;;;;;;;;6281182;22;20259;-78
2023/11/22 02:18:52;;;;;;;3.80;3.35;;;;;;;;;;6280347;22;20280;-78
2023/11/22 02:21:21;;;;;;;3.05;2.42;;;;;;;;;;6280466;22;20252;-77
2023/11/22 02:23:50;;;;;;;2.95;2.72;;;;;;;;;;6280205;22;20235;-79
2023/11/22 02:26:18;;;;;;;3.67;2.50;;;;;;;;;;6280402;22;20664;-79
2023/11/22 02:28:45;;;;;;;3.30;2.97;;;;;;;;;;6280136;22;20204;-79
2023/11/22 02:31:13;;;;;;;4.53;2.72;;;;;;;;;;6279350;22;20237;-78
2023/11/22 02:33:41;;;;;;;2.90;2.70;;;;;;;;;;6280070;22;20622;-79
2023/11/22 02:36:12;;;;;;;3.78;3.35;;;;;;;;;;6280028;22;20176;-78
2023/11/22 02:38:40;;;;;;;4.38;3.35;;;;;;;;;;6280676;22;20197;-78
2023/11/22 02:41:09;;;;;;;6.38;3.42;;;;;;;;;;6279506;22;20190;-79
2023/11/22 02:43:37;;;;;;;3.92;2.92;;;;;;;;;;6280306;22;20524;-79
2023/11/22 02:46:04;;;;;;;4.40;3.80;;;;;;;;;;6281104;22;20251;-78
2023/11/22 02:48:33;;;;;;;3.53;3.10;;;;;;;;;;6281222;22;20193;-77
2023/11/22 02:51:00;;;;;;;3.85;2.55;;;;;;;;;;6280608;22;20180;-79
2023/11/22 02:53:29;;;;;;;6.15;3.58;;;;;;;;;;6280449;22;20819;-78
2023/11/22 02:56:00;;;;;;;4.15;3.03;;;;;;;;;;6280306;22;20219;-79
2023/11/22 02:58:29;;;;;;;3.10;2.55;;;;;;;;;;6279266;22;20204;-78
2023/11/22 03:00:57;;;;;;;3.25;2.83;;;;;;;;;;6279905;22;20173;-78
2023/11/22 03:03:24;;;;;;;3.95;3.55;;;;;;;;;;6280294;22;20246;-78
2023/11/22 03:05:52;;;;;;;5.35;3.00;;;;;;;;;;6280286;22;20183;-78
2023/11/22 03:08:20;;;;;;;3.97;3.30;;;;;;;;;;6280658;22;20712;-78
2023/11/22 03:10:47;;;;;;;3.58;2.97;;;;;;;;;;6279708;22;20255;-78
2023/11/22 03:13:15;;;;;;;3.38;2.65;;;;;;;;;;6280328;22;20231;-79
2023/11/22 03:15:43;;;;;;;3.17;2.83;;;;;;;;;;6282635;22;20176;-79
2023/11/22 03:18:11;;;;;;;3.42;3.08;;;;;;;;;;6282929;22;20228;-79
2023/11/22 03:20:42;;;;;;;3.58;3.20;;;;;;;;;;6282510;22;20508;-79
2023/11/22 03:23:10;;;;;;;4.82;3.38;;;;;;;;;;6282318;22;20543;-78
2023/11/22 03:25:39;;;;;;;3.63;2.58;;;;;;;;;;6282929;22;20513;-78
2023/11/22 03:28:06;;;;;;;3.38;3.10;;;;;;;;;;6281024;22;20192;-78
2023/11/22 03:30:33;;;;;;;3.50;3.17;;;;;;;;;;6282605;22;20256;-78
2023/11/22 03:33:02;;;;;;;3.17;2.70;;;;;;;;;;6281483;22;20232;-78
2023/11/22 03:35:31;;;;;;;4.63;2.55;;;;;;;;;;6281162;22;20187;-77
2023/11/22 03:37:58;;;;;;;2.75;2.55;;;;;;;;;;6281548;22;20204;-78
2023/11/22 03:40:26;;;;;;;3.83;2.40;;;;;;;;;;6281086;22;20176;-79
2023/11/22 03:42:53;;;;;;;4.03;3.15;;;;;;;;;;6280565;22;20206;-78
2023/11/22 03:45:20;;;;;;;3.72;2.70;;;;;;;;;;6281382;22;20232;-78
2023/11/22 03:47:48;;;;;;;2.90;2.45;;;;;;;;;;6281364;22;20275;-78
2023/11/22 03:50:17;;;;;;;4.43;3.03;;;;;;;;;;6281613;22;20177;-78
2023/11/22 03:52:44;;;;;;;3.92;3.33;;;;;;;;;;6280757;22;20690;-79
2023/11/22 03:55:12;;;;;;;3.38;2.88;;;;;;;;;;6281794;22;20259;-78
2023/11/22 03:57:39;;;;;;;4.05;2.88;;;;;;;;;;6281209;22;20232;-79
2023/11/22 04:00:09;;;;;;;3.55;2.90;;;;;;;;;;6279785;22;20206;-79
2023/11/22 04:02:37;;;;;;;3.58;2.83;;;;;;;;;;6281341;22;20579;-78
2023/11/22 04:05:05;;;;;;;3.38;2.95;;;;;;;;;;6281741;22;20202;-78
2023/11/22 04:07:36;;;;;;;4.20;3.38;;;;;;;;;;6281734;22;20193;-78
2023/11/22 04:10:03;;;;;;;3.88;2.70;;;;;;;;;;6281532;22;20188;-78
2023/11/22 04:12:31;;;;;;;2.90;2.55;;;;;;;;;;6281815;22;20180;-78
2023/11/22 04:14:59;;;;;;;3.20;2.90;;;;;;;;;;6281630;22;20176;-79
2023/11/22 04:17:26;;;;;;;3.22;2.90;;;;;;;;;;6281374;22;20196;-78
2023/11/22 04:19:53;;;;;;;4.90;3.40;;;;;;;;;;6279831;22;20199;-79
2023/11/22 04:22:21;;;;;;;4.07;3.67;;;;;;;;;;6280171;22;20255;-77
2023/11/22 04:24:50;;;;;;;4.43;3.78;;;;;;;;;;6279531;22;20271;-78
2023/11/22 04:27:17;;;;;;;5.85;3.53;;;;;;;;;;6280640;22;20196;-78
2023/11/22 04:29:45;;;;;;;2.97;2.78;;;;;;;;;;6280079;22;20582;-79
2023/11/22 04:32:13;;;;;;;3.40;3.10;;;;;;;;;;6281145;22;20176;-79
2023/11/22 04:34:40;;;;;;;3.65;2.67;;;;;;;;;;6280778;22;20570;-79
2023/11/22 04:37:08;;;;;;;3.00;2.35;;;;;;;;;;6281531;22;20216;-78
2023/11/22 04:39:35;;;;;;;4.03;2.70;;;;;;;;;;6280050;22;20199;-78
2023/11/22 04:42:05;;;;;;;3.08;2.80;;;;;;;;;;6280646;22;20208;-78
2023/11/22 04:44:32;;;;;;;3.00;2.65;;;;;;;;;;6280334;22;20699;-78
2023/11/22 04:47:00;;;;;;;3.33;2.97;;;;;;;;;;6280874;22;20180;-78
2023/11/22 04:49:27;;;;;;;3.83;3.45;;;;;;;;;;6279940;22;20238;-78
2023/11/22 04:51:55;;;;;;;2.97;2.63;;;;;;;;;;6280678;22;20254;-78
2023/11/22 04:54:22;;;;;;;4.03;3.63;;;;;;;;;;6280732;22;20173;-77
2023/11/22 04:56:50;;;;;;;4.13;3.67;;;;;;;;;;6278643;22;20261;-78
2023/11/22 04:59:19;;;;;;;4.60;3.30;;;;;;;;;;6278182;22;20202;-78
2023/11/22 05:01:48;;;;;;;3.38;3.08;;;;;;;;;;6281165;22;20200;-79
2023/11/22 05:04:16;;;;;;;3.92;3.25;;;;;;;;;;6281457;22;20200;-78
2023/11/22 05:06:44;;;;;;;4.45;3.25;;;;;;;;;;6280694;22;20260;-79
2023/11/22 05:09:13;;;;;;;4.05;3.33;;;;;;;;;;6280383;22;20208;-78
2023/11/22 05:11:41;;;;;;;4.65;2.83;;;;;;;;;;6279870;22;20168;-79
2023/11/22 05:14:08;;;;;;;3.38;3.05;;;;;;;;;;6280894;22;20176;-77
2023/11/22 05:16:37;;;;;;;3.97;3.15;;;;;;;;;;6280114;22;20251;-77
2023/11/22 05:19:05;;;;;;;4.38;3.45;;;;;;;;;;6278723;22;20200;-78
2023/11/22 05:21:33;;;;;;;3.13;2.83;;;;;;;;;;6279407;22;20177;-78
2023/11/22 05:24:00;;;;;;;5.38;2.85;;;;;;;;;;6280117;22;20267;-78
2023/11/22 05:26:28;;;;;;;3.22;2.50;;;;;;;;;;6279180;22;20279;-78
2023/11/22 05:28:55;;;;;;;3.75;3.35;;;;;;;;;;6278597;22;20207;-79
2023/11/22 05:31:23;;;;;;;4.57;3.63;;;;;;;;;;6279548;22;20252;-77
2023/11/22 05:33:52;;;;;;;3.65;2.95;;;;;;;;;;6279816;22;20264;-78
2023/11/22 05:36:20;;;;;;;3.97;3.28;;;;;;;;;;6279371;22;20500;-78
2023/11/22 05:38:47;;;;;;;3.30;2.60;;;;;;;;;;6279260;22;20201;-78
2023/11/22 05:41:15;;;;;;;2.95;2.70;;;;;;;;;;6279378;22;20176;-78
2023/11/22 05:43:43;;;;;;;3.58;2.92;;;;;;;;;;6279490;22;20172;-78
2023/11/22 05:46:12;;;;;;;4.80;2.80;;;;;;;;;;6280019;22;20275;-78
2023/11/22 05:48:40;;;;;;;2.80;2.50;;;;;;;;;;6279710;22;20222;-78
2023/11/22 05:51:09;;;;;;;3.67;2.88;;;;;;;;;;6279714;22;20227;-78
2023/11/22 05:53:36;;;;;;;3.63;2.80;;;;;;;;;;6279005;22;20176;-78
2023/11/22 05:56:04;;;;;;;3.00;2.67;;;;;;;;;;6278441;22;20207;-78
2023/11/22 05:58:32;;;;;;;7.93;3.30;;;;;;;;;;6278223;22;20252;-78
2023/11/22 06:00:59;;;;;;;3.30;3.00;;;;;;;;;;6278109;22;20176;-78
2023/11/22 06:03:27;;;;;;;2.83;2.63;;;;;;;;;;6278973;22;20228;-79
2023/11/22 06:05:57;;;;;;;4.32;3.08;;;;;;;;;;6278247;22;20310;-78
2023/11/22 06:08:26;;;;;;;3.20;2.85;;;;;;;;;;6278433;22;20192;-78
2023/11/22 06:10:56;;;;;;;3.88;2.72;;;;;;;;;;6277569;22;20215;-78
2023/11/22 06:13:24;;;;;;;2.42;2.15;;;;;;;;;;6278477;22;20169;-78
2023/11/22 06:15:51;;;;;;;2.65;2.45;;;;;;;;;;6277955;22;20169;-78
2023/11/22 06:18:19;;;;;;;2.63;2.42;;;;;;;;;;6278346;22;20196;-78
2023/11/22 06:20:48;;;;;;;2.30;2.10;;;;;;;;;;6278338;22;20625;-78
2023/11/22 06:23:15;;;;;;;2.92;2.63;;;;;;;;;;6278654;22;20184;-78
2023/11/22 06:25:45;;;;;;;7.82;3.00;;;;;;;;;;6278208;22;20222;-78
2023/11/22 06:28:12;;;;;;;4.00;2.65;;;;;;;;;;6278546;22;20701;-78
2023/11/22 06:30:39;;;;;;;2.42;2.22;;;;;;;;;;6278266;22;20251;-78
2023/11/22 06:33:07;;;;;;;4.00;2.58;;;;;;;;;;6278961;22;20315;-78
2023/11/22 06:35:36;;;;;;;2.88;2.40;;;;;;;;;;6277202;22;20199;-78
2023/11/22 06:38:03;;;;;;;3.13;2.83;;;;;;;;;;6278016;22;20261;-78
2023/11/22 06:40:30;;;;;;;2.35;2.15;;;;;;;;;;6278084;22;20203;-78
2023/11/22 06:42:59;;;;;;;2.55;2.35;;;;;;;;;;6278275;22;20251;-78
2023/11/22 06:45:27;;;;;;;2.70;2.50;;;;;;;;;;6277965;22;20202;-78
2023/11/22 06:47:54;;;;;;;4.22;2.80;;;;;;;;;;6278283;22;20193;-78
2023/11/22 06:50:22;;;;;;;3.20;2.90;;;;;;;;;;6279671;22;20202;-78
2023/11/22 06:52:49;;;;;;;7.00;3.83;;;;;;;;;;6280239;22;20208;-78
2023/11/22 06:55:17;;;;;;;2.95;2.63;;;;;;;;;;6279789;22;20624;-78
2023/11/22 06:57:45;;;;;;;2.60;2.40;;;;;;;;;;6278135;22;20270;-78
2023/11/22 07:00:16;;;;;;;2.50;2.10;;;;;;;;;;6278637;22;20210;-78
2023/11/22 07:02:43;;;;;;;3.15;2.72;;;;;;;;;;6279781;22;20454;-78
2023/11/22 07:05:11;;;;;;;3.08;2.47;;;;;;;;;;6279786;22;20543;-78
2023/11/22 07:07:40;;;;;;;3.00;2.80;;;;;;;;;;6278895;22;20256;-78
2023/11/22 07:10:11;;;;;;;2.88;2.65;;;;;;;;;;6279850;22;20229;-78
2023/11/22 07:12:39;;;;;;;7.10;4.13;;;;;;;;;;6280546;22;20191;-78
2023/11/22 07:15:09;;;;;;;4.97;4.53;;;;;;;;;;6279759;22;20176;-78
2023/11/22 07:17:38;;;;;;;3.65;3.05;;;;;;;;;;6279645;22;20189;-78
2023/11/22 07:20:09;;;;;;;4.10;2.90;;;;;;;;;;6278790;22;20229;-78
2023/11/22 07:22:37;;;;;;;3.10;2.25;;;;;;;;;;6279672;22;20180;-78
2023/11/22 07:25:07;;;;;;;2.92;2.45;;;;;;;;;;6278893;22;20165;-78
2023/11/22 07:27:34;;;;;;;2.83;2.30;;;;;;;;;;6279307;22;20668;-78
2023/11/22 07:30:01;;;;;;;3.53;2.88;;;;;;;;;;6279064;22;20207;-78
2023/11/22 07:32:29;;;;;;;4.75;2.97;;;;;;;;;;6278811;22;20180;-78
2023/11/22 07:35:03;;;;;;;3.65;2.90;;;;;;;;;;6278418;22;20173;-78
2023/11/22 07:37:31;;;;;;;2.60;2.40;;;;;;;;;;6278899;22;20705;-78
2023/11/22 07:39:59;;;;;;;3.05;2.40;;;;;;;;;;6278620;22;20226;-78
2023/11/22 07:42:26;;;;;;;2.47;2.28;;;;;;;;;;6278494;22;20184;-78
2023/11/22 07:44:55;;;;;;;2.55;2.35;;;;;;;;;;6278963;22;20179;-78
2023/11/22 07:47:24;;;;;;;2.83;2.63;;;;;;;;;;6279314;22;20645;-78
2023/11/22 07:49:52;;;;;;;4.07;2.60;;;;;;;;;;6279259;22;20180;-78
2023/11/22 07:52:20;;;;;;;4.47;2.80;;;;;;;;;;6279446;22;20187;-78
2023/11/22 07:54:48;;;;;;;3.55;3.22;;;;;;;;;;6279325;22;20236;-78
2023/11/22 07:57:16;;;;;;;5.93;5.15;;;;;;;;;;6279401;22;20275;-78
2023/11/22 07:59:44;;;;;;;5.10;4.45;;;;;;;;;;6279224;22;20255;-78
2023/11/22 08:02:11;;;;;;;3.90;3.60;;;;;;;;;;6279843;22;20583;-78
2023/11/22 08:04:40;;;;;;;3.70;2.90;;;;;;;;;;6279829;22;20591;-78
2023/11/22 08:07:07;;;;;;;3.53;3.08;;;;;;;;;;6281072;22;20262;-78
2023/11/22 08:09:36;;;;;;;4.25;2.47;;;;;;;;;;6280358;22;20180;-78
2023/11/22 08:12:04;;;;;;;3.65;3.30;;;;;;;;;;6279907;22;20255;-78
2023/11/22 08:14:32;;;;;;;3.30;3.05;;;;;;;;;;6280899;22;20252;-77
2023/11/22 08:16:59;;;;;;;3.63;2.85;;;;;;;;;;6280897;22;20617;-78
2023/11/22 08:19:27;;;;;;;3.45;2.83;;;;;;;;;;6279707;22;20255;-78
2023/11/22 08:21:55;;;;;;;3.70;3.28;;;;;;;;;;6280226;22;20538;-78
2023/11/22 08:24:22;;;;;;;4.45;2.92;;;;;;;;;;6281361;22;20172;-78
2023/11/22 08:26:51;;;;;;;3.70;3.40;;;;;;;;;;6281304;22;20247;-77
2023/11/22 08:29:18;;;;;;;3.80;3.05;;;;;;;;;;6281793;22;20232;-78
2023/11/22 08:31:46;;;;;;;3.67;3.35;;;;;;;;;;6280923;22;20263;-78
2023/11/22 08:34:13;;;;;;;3.35;2.47;;;;;;;;;;6281146;22;20251;-78
2023/11/22 08:36:41;;;;;;;3.80;2.80;;;;;;;;;;6281921;22;20676;-78
2023/11/22 08:39:08;;;;;;;4.40;3.72;;;;;;;;;;6281418;22;20223;-78
2023/11/22 08:41:36;;;;;;;3.67;3.13;;;;;;;;;;6282649;22;20200;-79
2023/11/22 08:44:06;;;;;;;3.35;3.05;;;;;;;;;;6281702;22;20247;-79
2023/11/22 08:46:33;;;;;;;3.05;2.50;;;;;;;;;;6282301;22;20191;-79
2023/11/22 08:49:02;;;;;;;3.55;2.85;;;;;;;;;;6281691;22;20270;-79
2023/11/22 08:51:29;;;;;;;3.35;3.05;;;;;;;;;;6282364;22;20659;-79
2023/11/22 08:53:57;;;;;;;3.75;2.95;;;;;;;;;;6281269;22;20187;-78
2023/11/22 08:56:24;;;;;;;3.72;3.42;;;;;;;;;;6281578;22;20664;-78
2023/11/22 08:58:52;;;;;;;3.65;2.90;;;;;;;;;;6282009;22;20200;-79
2023/11/22 09:01:21;;;;;;;3.13;2.85;;;;;;;;;;6281178;22;20172;-78
2023/11/22 09:03:50;;;;;;;3.22;2.92;;;;;;;;;;6281469;22;20633;-78
2023/11/22 09:06:18;;;;;;;2.65;2.28;;;;;;;;;;6281937;22;20565;-78
2023/11/22 09:08:46;;;;;;;3.35;2.95;;;;;;;;;;6281770;22;20265;-78
2023/11/22 09:11:15;;;;;;;3.40;3.10;;;;;;;;;;6281390;22;20177;-78
2023/11/22 09:13:43;;;;;;;3.13;2.47;;;;;;;;;;6281513;22;20172;-77
2023/11/22 09:16:12;;;;;;;4.35;2.58;;;;;;;;;;6281421;22;20258;-78
2023/11/22 09:18:41;;;;;;;2.45;2.20;;;;;;;;;;6280641;22;20188;-78
2023/11/22 09:21:09;;;;;;;3.45;2.72;;;;;;;;;;6280409;22;20697;-77
2023/11/22 09:23:37;;;;;;;2.78;2.58;;;;;;;;;;6279572;22;20180;-79
2023/11/22 09:26:05;;;;;;;3.25;2.60;;;;;;;;;;6281023;22;20211;-78
2023/11/22 09:28:32;;;;;;;3.35;3.00;;;;;;;;;;6281234;22;20235;-79
2023/11/22 09:31:05;;;;;;;3.38;2.50;;;;;;;;;;6280758;22;20226;-77
2023/11/22 09:33:33;;;;;;;3.83;2.60;;;;;;;;;;6281592;22;20164;-78
2023/11/22 09:36:03;;;;;;;5.20;3.55;;;;;;;;;;6282429;22;20263;-79
2023/11/22 09:38:31;;;;;;;4.07;3.67;;;;;;;;;;6281575;22;20225;-79
2023/11/22 09:40:59;;;;;;;3.95;2.58;;;;;;;;;;6280216;22;20176;-79
2023/11/22 09:43:28;;;;;;;2.90;2.63;;;;;;;;;;6280593;22;20188;-78
2023/11/22 09:45:57;;;;;;;3.00;2.70;;;;;;;;;;6281779;22;20687;-79
2023/11/22 09:48:26;;;;;;;2.58;2.17;;;;;;;;;;6281408;22;20217;-78
2023/11/22 09:51:03;;;;;;;3.40;3.10;;;;;;;;;;6281544;22;20169;-77
2023/11/22 09:53:34;;;;;;;2.45;2.25;;;;;;;;;;6281607;22;20500;-78
2023/11/22 09:56:03;;;;;;;5.00;3.08;;;;;;;;;;6282136;22;20598;-78
2023/11/22 09:58:32;;;;;;;4.65;3.15;;;;;;;;;;6281406;22;20210;-79
2023/11/22 10:01:01;;;;;;;4.78;3.50;;;;;;;;;;6281540;22;20185;-79
2023/11/22 10:03:29;;;;;;;4.00;3.28;;;;;;;;;;6281785;22;20172;-78
2023/11/22 10:05:58;;;;;;;4.20;3.55;;;;;;;;;;6280800;22;20177;-79
2023/11/22 10:08:29;;;;;;;4.93;4.15;;;;;;;;;;6282271;22;20196;-79
2023/11/22 10:10:57;;;;;;;3.70;3.05;;;;;;;;;;6281216;22;20244;-78
2023/11/22 10:13:25;;;;;;;3.40;2.55;;;;;;;;;;6280988;22;20203;-79
2023/11/22 10:15:54;;;;;;;3.53;2.50;;;;;;;;;;6280513;22;20716;-78
2023/11/22 10:18:21;;;;;;;3.08;2.80;;;;;;;;;;6281174;22;20192;-79
2023/11/22 10:20:50;;;;;;;2.72;2.53;;;;;;;;;;6281285;22;20209;-77
2023/11/22 10:23:24;;;;;;;3.22;2.92;;;;;;;;;;6279472;22;20562;-79
2023/11/22 10:25:55;;;;;;;3.08;2.40;;;;;;;;;;6280861;22;20188;-77
2023/11/22 10:28:24;;;;;;;2.60;2.40;;;;;;;;;;6281220;22;20196;-78
2023/11/22 10:30:52;;;;;;;2.90;2.70;;;;;;;;;;6280947;22;20629;-79
2023/11/22 10:33:22;;;;;;;2.60;2.40;;;;;;;;;;6281305;22;20207;-78
2023/11/22 10:35:52;;;;;;;2.30;2.03;;;;;;;;;;6280693;22;20209;-79
2023/11/22 10:38:21;;;;;;;3.10;2.65;;;;;;;;;;6280767;22;20244;-79
2023/11/22 10:40:51;;;;;;;2.60;2.40;;;;;;;;;;6281010;22;20176;-79
2023/11/22 10:43:23;;;;;;;3.03;2.72;;;;;;;;;;6281127;22;20156;-78
2023/11/22 10:45:53;;;;;;;2.40;2.25;;;;;;;;;;6281858;22;20172;-79
2023/11/22 10:48:21;;;;;;;2.58;2.38;;;;;;;;;;6279894;22;20200;-79
2023/11/22 10:50:49;;;;;;;2.35;2.15;;;;;;;;;;6281176;22;20222;-79
2023/11/22 10:53:22;;;;;;;3.13;2.35;;;;;;;;;;6280498;22;20259;-78
2023/11/22 10:55:50;;;;;;;2.42;2.22;;;;;;;;;;6280298;22;20161;-77
2023/11/22 10:58:20;;;;;;;2.00;1.90;;;;;;;;;;6277380;22;20196;-77
2023/11/22 11:00:50;;;;;;;2.00;1.90;;;;;;;;;;6280063;22;20228;-80
2023/11/22 11:03:20;;;;;;;3.13;2.47;;;;;;;;;;6280427;22;20495;-78
2023/11/22 11:05:53;;;;;;;2.90;2.20;;;;;;;;;;6280804;22;20157;-77
2023/11/22 11:08:22;;;;;;;2.53;2.33;;;;;;;;;;6280964;22;20284;-79
2023/11/22 11:10:50;;;;;;;2.75;2.50;;;;;;;;;;6281077;22;20246;-78
2023/11/22 11:13:19;;;;;;;2.47;2.28;;;;;;;;;;6281131;22;20182;-77
2023/11/22 11:15:47;;;;;;;2.75;2.42;;;;;;;;;;6281203;22;20200;-77
2023/11/22 11:18:16;;;;;;;3.58;2.42;;;;;;;;;;6280917;22;20194;-79
2023/11/22 11:20:49;;;;;;;2.13;1.90;;;;;;;;;;6281129;22;20177;-78
2023/11/22 11:23:17;;;;;;;2.58;2.38;;;;;;;;;;6279193;22;20271;-79
2023/11/22 11:25:45;;;;;;;2.30;2.10;;;;;;;;;;6281416;22;20712;-78
2023/11/22 11:28:12;;;;;;;2.50;2.28;;;;;;;;;;6281362;22;20283;-79
2023/11/22 11:30:45;;;;;;;2.63;2.42;;;;;;;;;;6281246;22;20171;-78
2023/11/22 11:33:16;;;;;;;3.00;2.63;;;;;;;;;;6281819;22;20519;-79
2023/11/22 11:35:46;;;;;;;3.33;2.53;;;;;;;;;;6282105;22;20206;-78
2023/11/22 11:38:15;;;;;;;2.28;2.08;;;;;;;;;;6283749;22;20192;-78
2023/11/22 11:40:43;;;;;;;1.80;1.70;;;;;;;;;;6282175;22;20173;-78
2023/11/22 11:43:12;;;;;;;2.58;2.38;;;;;;;;;;6283058;22;20176;-79
2023/11/22 11:45:45;;;;;;;2.80;2.42;;;;;;;;;;6281577;22;20177;-77
2023/11/22 11:48:15;;;;;;;1.90;1.80;;;;;;;;;;6282305;22;20207;-78
2023/11/22 11:50:43;;;;;;;2.25;2.08;;;;;;;;;;6281957;22;20184;-78
2023/11/22 11:53:11;;;;;;;2.75;1.80;;;;;;;;;;6282050;22;20200;-78
2023/11/22 11:55:38;;;;;;;3.70;2.92;;;;;;;;;;6282340;22;20621;-77
2023/11/22 11:58:09;;;;;;;2.72;2.40;;;;;;;;;;6281736;22;20196;-78
2023/11/22 12:00:40;;;;;;;1.70;1.60;;;;;;;;;;6282761;22;20161;-79
2023/11/22 12:03:09;;;;;;;2.72;2.53;;;;;;;;;;6282586;22;20157;-77
2023/11/22 12:05:38;;;;;;;2.17;2.00;;;;;;;;;;6281914;22;20172;-77
2023/11/22 12:08:06;;;;;;;2.33;2.13;;;;;;;;;;6282823;22;20227;-78
2023/11/22 12:10:34;;;;;;;1.80;1.70;;;;;;;;;;6281400;22;20200;-77
2023/11/22 12:13:01;;;;;;;3.10;2.60;;;;;;;;;;6281085;22;20815;-77
2023/11/22 12:15:29;;;;;;;2.03;1.83;;;;;;;;;;6280943;22;20183;-79
2023/11/22 12:17:57;;;;;;;2.40;2.20;;;;;;;;;;6281405;22;20199;-79
2023/11/22 12:20:26;;;;;;;1.92;1.70;;;;;;;;;;6280833;22;20175;-78
2023/11/22 12:22:55;;;;;;;2.08;1.73;;;;;;;;;;6282241;22;20267;-77
2023/11/22 12:25:22;;;;;;;2.70;2.40;;;;;;;;;;6282255;22;20577;-79
2023/11/22 12:27:50;;;;;;;2.30;2.10;;;;;;;;;;6281598;22;20242;-79
2023/11/22 12:30:32;;;;;;;2.13;1.92;;;;;;;;;;6281296;22;20192;-78
2023/11/22 12:33:03;;;;;;;2.20;2.00;;;;;;;;;;6279918;22;20180;-78
2023/11/22 12:35:33;;;;;;;1.95;1.75;;;;;;;;;;6281249;22;20157;-77
2023/11/22 12:38:03;;;;;;;1.98;1.88;;;;;;;;;;6281444;22;20200;-78
2023/11/22 12:40:32;;;;;;;1.60;1.50;;;;;;;;;;6281662;22;20256;-78
2023/11/22 12:43:01;;;;;;;2.20;1.95;;;;;;;;;;6282354;22;20232;-77
2023/11/22 12:45:33;;;;;;;1.77;1.67;;;;;;;;;;6280364;22;20172;-78
2023/11/22 12:48:01;;;;;;;1.80;1.70;;;;;;;;;;6280599;22;20242;-79
2023/11/22 12:50:37;;;;;;;2.10;1.98;;;;;;;;;;6281250;22;20708;-78
2023/11/22 12:53:13;;;;;;;2.15;1.77;;;;;;;;;;6280724;22;20186;-79
2023/11/22 12:55:44;;;;;;;1.80;1.40;;;;;;;;;;6280452;22;20552;-77
2023/11/22 12:58:12;;;;;;;2.03;1.83;;;;;;;;;;6279924;22;20196;-78
2023/11/22 13:00:40;;;;;;;1.73;1.63;;;;;;;;;;6280162;22;20169;-78
2023/11/22 13:03:10;;;;;;;2.17;1.98;;;;;;;;;;6279813;22;20176;-78
2023/11/22 13:05:37;;;;;;;2.83;2.40;;;;;;;;;;6280651;22;20243;-78
2023/11/22 13:08:05;;;;;;;2.33;2.10;;;;;;;;;;6281368;22;20596;-77
2023/11/22 13:10:35;;;;;;;3.15;2.85;;;;;;;;;;6279810;22;20223;-78
2023/11/22 13:13:02;;;;;;;2.90;2.47;;;;;;;;;;6280863;22;20546;-78
2023/11/22 13:15:30;;;;;;;2.25;2.05;;;;;;;;;;6278741;22;20264;-78
2023/11/22 13:17:58;;;;;;;2.55;2.35;;;;;;;;;;6278416;22;20199;-78
2023/11/22 13:20:26;;;;;;;2.85;2.30;;;;;;;;;;6280411;22;20173;-79
2023/11/22 13:22:54;;;;;;;4.05;2.60;;;;;;;;;;6281183;22;20262;-78
2023/11/22 13:25:23;;;;;;;2.17;1.95;;;;;;;;;;6280163;22;20211;-78
2023/11/22 13:27:56;;;;;;;2.63;2.42;;;;;;;;;;6279751;22;20197;-78
2023/11/22 13:30:24;;;;;;;3.45;2.88;;;;;;;;;;6278995;22;20671;-77
2023/11/22 13:32:52;;;;;;;2.08;1.77;;;;;;;;;;6279386;22;20204;-78
2023/11/22 13:35:21;;;;;;;2.50;2.30;;;;;;;;;;6279674;22;20200;-78
2023/11/22 13:37:49;;;;;;;2.10;2.00;;;;;;;;;;6278780;22;20207;-78
2023/11/22 13:40:21;;;;;;;1.70;1.60;;;;;;;;;;6278456;22;20211;-77
2023/11/22 13:42:52;;;;;;;2.83;2.00;;;;;;;;;;6278360;22;20161;-78
2023/11/22 13:45:21;;;;;;;2.10;1.83;;;;;;;;;;6279368;22;20165;-77
2023/11/22 13:47:50;;;;;;;1.83;1.73;;;;;;;;;;6278989;22;20578;-77
2023/11/22 13:50:21;;;;;;;1.95;1.83;;;;;;;;;;6279370;22;20203;-77
2023/11/22 13:52:49;;;;;;;2.28;2.17;;;;;;;;;;6278879;22;20210;-78
2023/11/22 13:55:22;;;;;;;2.30;2.10;;;;;;;;;;6279076;22;20255;-78
2023/11/22 13:57:49;;;;;;;2.30;1.83;;;;;;;;;;6279027;22;20196;-78
2023/11/22 14:00:22;;;;;;;2.55;2.20;;;;;;;;;;6278611;22;20210;-77
2023/11/22 14:02:52;;;;;;;2.15;1.95;;;;;;;;;;6278385;22;20231;-78
2023/11/22 14:05:20;;;;;;;2.00;1.90;;;;;;;;;;6278942;22;20160;-78
2023/11/22 14:07:48;;;;;;;2.30;2.10;;;;;;;;;;6278295;22;20211;-78
2023/11/22 14:10:16;;;;;;;1.98;1.88;;;;;;;;;;6279515;22;20525;-78
2023/11/22 14:12:44;;;;;;;2.15;2.05;;;;;;;;;;6278703;22;20176;-78
2023/11/22 14:15:11;;;;;;;1.67;1.58;;;;;;;;;;6279311;22;20229;-78
2023/11/22 14:17:41;;;;;;;2.15;2.05;;;;;;;;;;6279024;22;20276;-78
2023/11/22 14:20:11;;;;;;;2.38;2.17;;;;;;;;;;6278807;22;20672;-78
2023/11/22 14:22:39;;;;;;;2.85;2.58;;;;;;;;;;6279569;22;20184;-78
2023/11/22 14:25:11;;;;;;;2.40;2.20;;;;;;;;;;6279957;22;20259;-78
2023/11/22 14:27:38;;;;;;;2.40;2.20;;;;;;;;;;6279095;22;20227;-78
2023/11/22 14:30:08;;;;;;;2.67;2.45;;;;;;;;;;6278555;22;20256;-77
2023/11/22 14:32:35;;;;;;;2.35;2.15;;;;;;;;;;6279234;22;20176;-78
2023/11/22 14:35:05;;;;;;;2.20;2.00;;;;;;;;;;6278899;22;20259;-77
2023/11/22 14:37:33;;;;;;;3.08;2.88;;;;;;;;;;6278835;22;20573;-77
2023/11/22 14:40:03;;;;;;;3.50;3.20;;;;;;;;;;6279038;22;20613;-78
2023/11/22 14:42:31;;;;;;;3.65;3.10;;;;;;;;;;6279301;22;20160;-77
2023/11/22 14:44:59;;;;;;;2.67;2.22;;;;;;;;;;6278463;22;20176;-77
2023/11/22 14:47:30;;;;;;;3.65;2.35;;;;;;;;;;6278902;22;20673;-78
2023/11/22 14:49:57;;;;;;;3.03;2.78;;;;;;;;;;6279612;22;20156;-77